AirNav   TITAN Aviation Fuels
 
 1693 users online  

3II9 Dick's Strip Airport
Arcola, Indiana, USA

GOING TO ARCOLA?


FAA INFORMATION EFFECTIVE 20 MAY 2021

Location

FAA Identifier: 3II9
Lat/Long: 41-05-50.1720N 085-14-31.9030W
41-05.836200N 085-14.531717W
41.0972700,-85.2421953
(estimated)
Elevation: 850 ft. / 259 m (estimated)
Variation: 03W (1985)
From city: 2 miles SE of ARCOLA, IN
Time zone: UTC -4 (UTC -5 during Standard Time)
Zip code: 46818

Airport Operations

Airport use: Private use. Permission required prior to landing
Activation date: 06/1983
Control tower: no
ARTCC: CHICAGO CENTER
FSS: TERRE HAUTE FLIGHT SERVICE STATION
Attendance: MAY-SEP DAYLIGHT HOURS
Wind indicator: yes
Segmented circle: no

Airport Communications

WX AWOS-3 at SMD (5 nm NE): 124.55 (260-490-4030)
WX ASOS at FWA (7 nm S): PHONE 260-479-6621
WX AWOS-3 at GWB (15 nm NE): 124.15 (260-925-8225)
WX AWOS-3PT at HHG (18 nm SW): 126.575 (260-454-1927)

Nearby radio navigation aids

VOR radial/distance  VOR name  Freq  Var
FWAr347/7.5FORT WAYNE VORTAC117.8006W
OLKr131/(14.6)WEBSTER LAKE VOR110.4003W

Airport Services

Runway Information

Runway 9/27

Dimensions: 2000 x 65 ft. / 610 x 20 m
Surface: turf
RUNWAY 9  RUNWAY 27
Traffic pattern: leftleft

Airport Ownership and Management from official FAA records

Ownership: Privately-owned
Owner: RONALD & LA DEAN DICK
2610 O'DAY ROAD
FORT WAYNE, IN 46818
Phone 260-625-3002
Manager: RONALD DICK
2610 O'DAY ROAD
FORT WAYNE, IN 46818
Phone 260-625-3002

Airport Operational Statistics

Aircraft based on the field: 2
Single engine airplanes: 1
Helicopters: 1
    

Additional Remarks

FOR CD CTC CHICAGO ARTCC AT 630-906-8921.

Instrument Procedures

There are no published instrument procedures at 3II9.

Some nearby airports with instrument procedures:

KSMD - Smith Field Airport (5 nm NE)
KFWA - Fort Wayne International Airport (7 nm S)
KGWB - De Kalb County Airport (15 nm NE)
KHHG - Huntington Municipal Airport (18 nm SW)
C62 - Kendallville Municipal Airport (23 nm N)
 
Loc | Ops | Rwys | IFR | FBO | Links
Com | Nav | Svcs | Stats | Notes
Area around 3II9 (Dick's Strip Airport)
 
Road maps at: MapQuest Bing Google
 
Aerial photo
WARNING: Photo may not be current or correct
Aerial photo of 3II9 (Dick's Strip Airport)
Photo from the southeast looking northwest. Note that there are two airports with adjacent strips, running side by side. This airport's runway is the north one. Immediately to its south is 1IN3. For your convenience, we have outlined the 3II9 runway in black, and the 1IN3 runway in red. In reality no such outlines exist, and it may be easy to confuse the runways. Make sure you pick the correct one.

Do you have a better or more recent aerial photo of Dick's Strip Airport that you would like to share? If so, please send us your photo.

 
Sectional chart

 
Airport distance calculator
Flying to Dick's Strip Airport? Find the distance to fly.

From to 3II9

Sunrise and sunset
Times for 14-Jun-2021
 Local
(UTC-4)
 Zulu
(UTC)
Morning civil twilight05:3509:35
Sunrise06:0910:09
Sunset21:1401:14
Evening civil twilight21:4701:47

Current date and time
Zulu (UTC)  14-Jun-2021 18:28:33
Local (UTC-4)  14-Jun-2021 14:28:33
 
METAR
KSMD 
5nm NE 
141815Z AUTO 35012G18KT 10SM FEW055 26/12 A2992 RMK A01
KFWA 
8nm S 
141754Z 02011G18KT 10SM FEW050 FEW250 26/13 A2991 RMK AO2 SLP124 FEW050 V SCT T02610133 10267 20200 51017
KGWB 
15nm NE 
141815Z AUTO 34011G14KT 10SM SCT055 SCT065 25/13 A2992 RMK AO2
KHHG 
18nm SW 
141815Z AUTO 36011G17KT 10SM CLR 26/11 A2991 RMK AO2 T02590109
TAF
KFWA 
8nm S 
141726Z 1418/1518 35015G25KT P6SM FEW050 FM150100 33006KT P6SM SKC
NOTAMs
Click for the latest NOTAMs
NOTAMs are issued by the DoD/FAA and will open in a separate window not controlled by AirNav.

 

 
 

Would you like to see your business listed on this page?

 If your business provides an interesting product or service to pilots, flight crews, aircraft, or users of the Dick's Strip Airport, you should consider listing it here.  To start the listing process, click on the button below
 
Add a business
 

Other Pages about Dick's Strip Airport

Update a link
 
Copyright © AirNav, LLC. All rights reserved. Privacy Policy  Contact